Time;durP1;ratioP1;P1;durP2;ratioP2;P2;SDS_P1;SDS_P2;PMS_P1;PMS_P2;Temp;Humidity;BMP_temperature;BMP_pressure;BME280_temperature;BME280_humidity;BME280_pressure;Samples;Min_cycle;Max_cycle;Signal;HPM_P1;HPM_P2
2022/10/21 00:00:40;;;;;;;64.72;41.72;;;4.80;99.90;;;;;;5077460;28;20101;-69
2022/10/21 00:03:08;;;;;;;63.65;41.38;;;4.80;99.90;;;;;;5077286;28;20072;-69
2022/10/21 00:05:36;;;;;;;60.08;37.00;;;4.80;99.90;;;;;;5095590;28;20040;-69
2022/10/21 00:08:04;;;;;;;64.38;39.35;;;4.80;99.90;;;;;;5095105;28;20051;-69
2022/10/21 00:10:31;;;;;;;60.08;36.65;;;4.80;99.90;;;;;;5078134;28;20040;-69
2022/10/21 00:12:58;;;;;;;58.50;36.67;;;4.70;99.90;;;;;;5076973;28;20125;-71
2022/10/21 00:15:26;;;;;;;53.45;35.08;;;4.70;99.90;;;;;;5095251;28;20089;-69
2022/10/21 00:17:55;;;;;;;53.53;33.30;;;4.70;99.90;;;;;;5079715;28;20036;-69
2022/10/21 00:20:22;;;;;;;49.53;32.95;;;4.70;99.90;;;;;;5094666;28;20126;-69
2022/10/21 00:22:49;;;;;;;51.78;33.10;;;4.70;99.90;;;;;;5095151;28;20072;-69
2022/10/21 00:25:17;;;;;;;51.50;33.30;;;4.60;99.90;;;;;;5094884;28;20046;-69
2022/10/21 00:27:45;;;;;;;52.03;32.05;;;4.60;99.90;;;;;;5095036;28;20483;-70
2022/10/21 00:30:13;;;;;;;52.65;33.75;;;4.50;99.90;;;;;;5077047;28;20483;-69
2022/10/21 00:32:41;;;;;;;54.63;33.58;;;4.50;99.90;;;;;;5075771;28;20135;-69
2022/10/21 00:35:09;;;;;;;53.53;34.22;;;4.50;99.90;;;;;;5095088;28;20048;-69
2022/10/21 00:37:37;;;;;;;56.65;35.05;;;4.50;99.90;;;;;;5096266;28;20044;-69
2022/10/21 00:40:05;;;;;;;65.40;38.20;;;4.50;99.90;;;;;;5095778;28;20062;-70
2022/10/21 00:42:38;;;;;;;56.45;35.55;;;4.50;99.90;;;;;;5076417;28;20447;-69
2022/10/21 00:45:17;;;;;;;47.28;29.77;;;4.40;99.90;;;;;;5076624;28;20047;-69
2022/10/21 00:47:49;;;;;;;50.85;30.80;;;4.40;99.90;;;;;;5078733;28;20044;-69
2022/10/21 00:50:33;;;;;;;46.42;29.77;;;4.30;99.90;;;;;;5096132;28;20040;-69
2022/10/21 00:53:02;;;;;;;37.30;23.90;;;4.40;99.90;;;;;;5097112;28;20044;-69
2022/10/21 00:55:33;;;;;;;39.78;26.38;;;4.40;99.90;;;;;;5097837;28;20094;-69
2022/10/21 00:58:02;;;;;;;44.67;28.33;;;4.30;99.90;;;;;;5079494;28;20447;-69
2022/10/21 01:00:30;;;;;;;40.55;26.17;;;4.30;99.90;;;;;;5095645;28;20513;-69
2022/10/21 01:02:58;;;;;;;40.08;26.55;;;4.40;99.90;;;;;;5076383;28;20048;-69
2022/10/21 01:05:27;;;;;;;39.55;26.33;;;4.40;99.90;;;;;;5094165;28;20040;-69
2022/10/21 01:07:56;;;;;;;36.85;25.10;;;4.40;99.90;;;;;;5076342;28;20479;-69
2022/10/21 01:10:23;;;;;;;43.08;26.85;;;4.30;99.90;;;;;;5094197;28;20126;-70
2022/10/21 01:13:02;;;;;;;42.38;26.30;;;4.30;99.90;;;;;;5075996;28;20044;-69
2022/10/21 01:15:36;;;;;;;43.10;27.65;;;4.30;99.90;;;;;;5075926;28;20040;-69
2022/10/21 01:18:11;;;;;;;43.53;29.50;;;4.30;99.90;;;;;;5094132;28;20502;-70
2022/10/21 01:21:08;;;;;;;45.80;32.00;;;4.20;99.90;;;;;;5076181;28;20071;-69
2022/10/21 01:24:15;;;;;;;53.65;35.38;;;4.10;99.90;;;;;;5083911;28;20131;-69
2022/10/21 01:27:02;;;;;;;47.58;32.95;;;4.00;99.90;;;;;;5043591;28;20126;-69
2022/10/21 01:29:52;;;;;;;47.60;31.55;;;4.00;99.90;;;;;;5096577;28;20395;-69
2022/10/21 01:32:29;;;;;;;49.13;32.30;;;4.00;99.90;;;;;;5079560;28;20139;-72
2022/10/21 01:35:03;;;;;;;44.55;30.88;;;4.00;99.90;;;;;;5076988;28;20105;-73
2022/10/21 01:37:36;;;;;;;44.08;30.63;;;4.00;99.90;;;;;;5075706;28;20051;-73
2022/10/21 01:40:08;;;;;;;39.63;28.95;;;3.90;99.90;;;;;;5094096;28;20509;-72
2022/10/21 01:42:42;;;;;;;48.58;33.40;;;3.90;99.90;;;;;;5075200;28;20059;-73
2022/10/21 01:45:16;;;;;;;46.10;30.63;;;3.90;99.90;;;;;;5075259;28;20097;-73
2022/10/21 01:47:49;;;;;;;41.70;29.75;;;3.90;99.90;;;;;;5075478;28;20566;-73
2022/10/21 01:50:21;;;;;;;44.10;29.23;;;3.90;99.90;;;;;;5093811;28;20036;-73
2022/10/21 01:52:51;;;;;;;46.58;30.02;;;3.90;99.90;;;;;;5076392;28;20047;-73
2022/10/21 01:55:21;;;;;;;47.35;29.48;;;3.80;99.90;;;;;;5075310;28;20410;-72
2022/10/21 01:57:57;;;;;;;46.85;29.80;;;3.90;99.90;;;;;;5093092;28;20459;-72
2022/10/21 02:00:24;;;;;;;44.95;29.15;;;3.90;99.90;;;;;;5093572;28;20044;-72
2022/10/21 02:03:00;;;;;;;47.42;30.92;;;3.80;99.90;;;;;;5073034;28;20048;-72
2022/10/21 02:05:32;;;;;;;44.70;29.17;;;3.90;99.90;;;;;;5074006;28;20044;-71
2022/10/21 02:07:59;;;;;;;41.33;28.73;;;3.80;99.90;;;;;;5055680;28;20467;-72
2022/10/21 02:10:32;;;;;;;44.13;26.58;;;3.80;99.90;;;;;;5074872;28;20037;-73
2022/10/21 02:13:03;;;;;;;47.42;29.50;;;3.80;99.90;;;;;;5075133;28;20418;-72
2022/10/21 02:15:32;;;;;;;45.05;27.13;;;3.80;99.90;;;;;;5093893;28;20040;-72
2022/10/21 02:18:05;;;;;;;44.22;28.63;;;3.80;99.90;;;;;;5093518;28;20394;-71
2022/10/21 02:20:36;;;;;;;46.47;27.45;;;3.80;99.90;;;;;;5074886;28;20078;-72
2022/10/21 02:23:04;;;;;;;46.30;26.92;;;3.80;99.90;;;;;;5092888;28;20044;-73
2022/10/21 02:25:36;;;;;;;49.78;26.73;;;3.80;99.90;;;;;;5093810;28;20044;-72
2022/10/21 02:28:04;;;;;;;40.53;23.90;;;3.80;99.90;;;;;;5075212;28;20457;-72
2022/10/21 02:30:39;;;;;;;37.40;22.65;;;3.80;99.90;;;;;;5092617;28;20044;-72
2022/10/21 02:33:14;;;;;;;38.92;23.42;;;3.80;99.90;;;;;;5092608;28;20442;-73
2022/10/21 02:35:48;;;;;;;43.33;25.08;;;3.70;99.90;;;;;;5075304;28;20380;-73
2022/10/21 02:38:23;;;;;;;35.33;22.50;;;3.80;99.90;;;;;;5075554;28;20048;-72
2022/10/21 02:40:54;;;;;;;36.35;22.38;;;3.80;99.90;;;;;;5093034;28;20040;-70
2022/10/21 02:43:27;;;;;;;35.63;21.83;;;3.80;99.90;;;;;;5075127;28;20055;-73
2022/10/21 02:45:59;;;;;;;37.53;23.52;;;3.80;99.90;;;;;;5075361;28;20501;-73
2022/10/21 02:48:28;;;;;;;40.50;25.70;;;3.80;99.90;;;;;;5093674;28;20040;-73
2022/10/21 02:50:55;;;;;;;38.70;22.73;;;3.80;99.90;;;;;;5074486;28;20044;-72
2022/10/21 02:53:22;;;;;;;46.40;26.55;;;3.70;99.90;;;;;;5074934;28;20046;-73
2022/10/21 02:55:50;;;;;;;41.38;25.08;;;3.70;99.90;;;;;;5075843;28;20050;-73
2022/10/21 02:58:17;;;;;;;39.03;23.88;;;3.70;99.90;;;;;;5096356;28;20039;-73
2022/10/21 03:00:45;;;;;;;48.10;26.48;;;3.70;99.90;;;;;;5095038;28;20075;-72
2022/10/21 03:03:12;;;;;;;39.90;24.88;;;3.70;99.90;;;;;;5092637;28;20044;-72
2022/10/21 03:05:41;;;;;;;39.25;23.67;;;3.70;99.90;;;;;;5092779;28;20040;-72
2022/10/21 03:08:08;;;;;;;41.50;23.83;;;3.70;99.90;;;;;;5094468;28;20044;-72
2022/10/21 03:10:35;;;;;;;37.20;23.10;;;3.60;99.90;;;;;;5096181;28;20044;-70
2022/10/21 03:13:03;;;;;;;38.90;23.95;;;3.60;99.90;;;;;;5097777;28;20070;-73
2022/10/21 03:15:30;;;;;;;39.00;22.60;;;3.60;99.90;;;;;;5079010;28;20093;-73
2022/10/21 03:17:57;;;;;;;43.67;24.15;;;3.50;99.90;;;;;;5096298;28;20040;-73
2022/10/21 03:20:25;;;;;;;47.65;25.63;;;3.50;99.90;;;;;;5077781;28;20097;-71
2022/10/21 03:22:54;;;;;;;53.85;31.73;;;3.50;99.90;;;;;;5077076;28;20048;-72
2022/10/21 03:25:22;;;;;;;39.08;23.58;;;3.50;99.90;;;;;;5077713;28;20048;-72
2022/10/21 03:27:50;;;;;;;43.33;26.77;;;3.50;99.90;;;;;;5094901;28;20048;-71
2022/10/21 03:30:17;;;;;;;51.90;32.65;;;3.50;99.90;;;;;;5096252;28;20048;-73
2022/10/21 03:32:45;;;;;;;55.65;36.25;;;3.40;99.90;;;;;;5095815;28;20048;-71
2022/10/21 03:35:12;;;;;;;48.05;32.75;;;3.40;99.90;;;;;;5077911;28;20556;-73
2022/10/21 03:37:40;;;;;;;44.00;28.95;;;3.40;99.90;;;;;;5096265;28;20068;-72
2022/10/21 03:40:10;;;;;;;43.97;28.77;;;3.30;99.90;;;;;;5078500;28;20044;-73
2022/10/21 03:42:37;;;;;;;41.53;27.77;;;3.30;99.90;;;;;;5101535;28;20085;-73
2022/10/21 03:45:07;;;;;;;40.25;29.15;;;3.20;99.90;;;;;;5101392;28;20056;-73
2022/10/21 03:47:34;;;;;;;36.55;26.20;;;3.20;99.90;;;;;;5100784;28;20047;-72
2022/10/21 03:50:02;;;;;;;38.33;26.05;;;3.30;99.90;;;;;;5095401;28;20113;-72
2022/10/21 03:52:29;;;;;;;39.30;25.85;;;3.30;99.90;;;;;;5080776;28;20123;-72
2022/10/21 03:54:57;;;;;;;41.83;26.45;;;3.30;99.90;;;;;;5096315;28;20048;-72
2022/10/21 03:57:26;;;;;;;41.58;26.25;;;3.20;99.90;;;;;;5077986;28;20050;-72
2022/10/21 03:59:54;;;;;;;41.30;27.48;;;3.10;99.90;;;;;;5096193;28;20044;-73
2022/10/21 04:02:21;;;;;;;40.83;26.35;;;3.10;99.90;;;;;;5077839;28;20097;-72
2022/10/21 04:04:49;;;;;;;41.75;26.73;;;3.10;99.90;;;;;;5077836;28;20039;-73
2022/10/21 04:07:16;;;;;;;40.97;26.42;;;3.00;99.90;;;;;;5077618;28;20048;-72
2022/10/21 04:09:44;;;;;;;40.55;26.67;;;3.00;99.90;;;;;;5097028;28;20139;-72
2022/10/21 04:12:12;;;;;;;35.67;23.77;;;2.90;99.90;;;;;;5096671;28;20044;-73
2022/10/21 04:14:41;;;;;;;37.40;23.70;;;2.90;99.90;;;;;;5095837;28;20047;-73
2022/10/21 04:17:08;;;;;;;40.13;26.58;;;3.00;99.90;;;;;;5078028;28;20106;-73
2022/10/21 04:19:36;;;;;;;43.85;26.40;;;3.00;99.90;;;;;;5096387;28;20040;-72
2022/10/21 04:22:04;;;;;;;38.30;27.52;;;3.00;99.90;;;;;;5080009;28;20518;-73
2022/10/21 04:24:32;;;;;;;43.38;28.17;;;3.00;99.90;;;;;;5099207;28;20070;-73
2022/10/21 04:27:00;;;;;;;43.65;26.45;;;2.90;99.90;;;;;;5080077;28;20044;-73
2022/10/21 04:29:27;;;;;;;35.60;22.90;;;2.90;99.90;;;;;;5095233;28;20101;-73
2022/10/21 04:31:56;;;;;;;35.15;22.63;;;3.00;99.90;;;;;;5080045;28;20043;-73
2022/10/21 04:34:23;;;;;;;42.25;24.98;;;3.10;99.90;;;;;;5082997;28;20055;-73
2022/10/21 04:36:50;;;;;;;51.63;28.77;;;3.10;99.90;;;;;;5097278;28;20098;-72
2022/10/21 04:39:19;;;;;;;45.55;25.92;;;3.10;99.90;;;;;;5094185;28;20032;-73
2022/10/21 04:41:48;;;;;;;42.10;23.75;;;3.00;99.90;;;;;;5095348;28;20040;-72
2022/10/21 04:44:16;;;;;;;50.40;26.92;;;3.00;99.90;;;;;;5076746;28;20471;-72
2022/10/21 04:46:43;;;;;;;41.70;23.85;;;3.00;99.90;;;;;;5095288;28;20506;-72
2022/10/21 04:49:12;;;;;;;43.67;25.02;;;3.00;99.90;;;;;;5078180;28;20406;-73
2022/10/21 04:51:40;;;;;;;39.75;22.05;;;2.90;99.90;;;;;;5105686;28;20059;-73
2022/10/21 04:54:08;;;;;;;39.38;21.75;;;2.90;99.90;;;;;;5099211;28;20066;-73
2022/10/21 04:56:35;;;;;;;38.92;23.23;;;3.00;99.90;;;;;;5109742;28;20126;-73
2022/10/21 04:59:03;;;;;;;41.25;23.70;;;3.00;99.90;;;;;;5080173;28;20044;-72
2022/10/21 05:01:30;;;;;;;35.42;23.27;;;3.00;99.90;;;;;;5097859;28;20127;-72
2022/10/21 05:03:57;;;;;;;51.25;23.00;;;3.00;99.90;;;;;;5076484;28;20561;-73
2022/10/21 05:06:26;;;;;;;40.83;23.13;;;3.10;99.90;;;;;;5094783;28;20040;-72
2022/10/21 05:08:54;;;;;;;38.15;22.58;;;3.20;99.90;;;;;;5094108;28;20040;-72
2022/10/21 05:11:21;;;;;;;39.45;23.10;;;3.20;99.90;;;;;;5094588;28;20050;-73
2022/10/21 05:13:48;;;;;;;37.28;21.83;;;3.20;99.90;;;;;;5075561;28;20514;-74
2022/10/21 05:16:16;;;;;;;39.65;21.65;;;3.30;99.90;;;;;;5094144;28;20036;-73
2022/10/21 05:18:44;;;;;;;47.05;24.17;;;3.40;99.90;;;;;;5094020;28;20052;-73
2022/10/21 05:21:11;;;;;;;41.97;24.85;;;3.40;99.90;;;;;;5094708;28;20104;-72
2022/10/21 05:23:40;;;;;;;41.78;24.02;;;3.40;99.90;;;;;;5073969;28;20051;-72
2022/10/21 05:26:07;;;;;;;40.72;24.90;;;3.50;99.90;;;;;;5093544;28;20044;-72
2022/10/21 05:28:35;;;;;;;43.88;25.27;;;3.50;99.90;;;;;;5094132;28;20089;-72
2022/10/21 05:31:02;;;;;;;43.70;26.60;;;3.50;99.90;;;;;;5101602;28;20044;-71
2022/10/21 05:33:30;;;;;;;42.17;25.08;;;3.50;99.90;;;;;;5085540;28;20060;-72
2022/10/21 05:35:59;;;;;;;39.40;24.05;;;3.60;99.90;;;;;;5096205;28;20036;-70
2022/10/21 05:38:27;;;;;;;35.35;22.33;;;3.70;99.90;;;;;;5095456;28;20040;-71
2022/10/21 05:40:56;;;;;;;39.05;22.95;;;3.70;99.90;;;;;;5095191;28;20059;-72
2022/10/21 05:43:24;;;;;;;34.10;22.27;;;3.70;99.90;;;;;;5093522;28;20048;-71
2022/10/21 05:45:52;;;;;;;42.35;22.13;;;3.80;99.90;;;;;;5093465;28;20127;-72
2022/10/21 05:48:19;;;;;;;52.17;31.10;;;4.00;99.90;;;;;;5093820;28;20051;-71
2022/10/21 05:50:47;;;;;;;61.10;38.75;;;4.10;99.90;;;;;;5093482;28;20048;-72
2022/10/21 05:53:14;;;;;;;46.10;29.73;;;4.30;99.90;;;;;;5093223;28;20491;-72
2022/10/21 05:55:42;;;;;;;46.53;24.65;;;4.40;99.90;;;;;;5093458;28;20051;-71
2022/10/21 05:58:11;;;;;;;42.00;25.90;;;4.60;99.90;;;;;;5075338;28;20499;-71
2022/10/21 06:00:39;;;;;;;45.88;25.73;;;4.70;99.90;;;;;;5075136;28;20133;-73
2022/10/21 06:03:06;;;;;;;40.25;23.55;;;4.80;99.90;;;;;;5074417;28;20071;-71
2022/10/21 06:05:34;;;;;;;40.65;23.77;;;4.80;99.90;;;;;;5093674;28;20093;-72
2022/10/21 06:08:01;;;;;;;44.30;28.20;;;4.90;99.90;;;;;;5092751;28;20044;-69
2022/10/21 06:10:28;;;;;;;43.47;28.42;;;5.00;99.90;;;;;;5076023;28;20586;-71
2022/10/21 06:12:56;;;;;;;50.50;29.17;;;5.10;99.90;;;;;;5095183;28;20040;-71
2022/10/21 06:15:24;;;;;;;46.20;26.80;;;5.10;99.90;;;;;;5075113;28;20048;-71
2022/10/21 06:17:52;;;;;;;51.15;27.10;;;5.30;99.90;;;;;;5093129;28;20394;-72
2022/10/21 06:20:19;;;;;;;48.85;27.38;;;5.40;99.90;;;;;;5092955;28;20066;-71
2022/10/21 06:22:46;;;;;;;52.40;29.58;;;5.50;99.90;;;;;;5092660;28;20093;-72
2022/10/21 06:25:14;;;;;;;45.28;27.02;;;5.50;99.90;;;;;;5075210;28;20052;-72
2022/10/21 06:27:41;;;;;;;46.92;28.95;;;5.60;99.90;;;;;;5092859;28;20048;-72
2022/10/21 06:30:10;;;;;;;57.38;29.35;;;5.80;99.90;;;;;;5093186;28;20064;-70
2022/10/21 06:32:39;;;;;;;46.35;27.30;;;5.90;99.90;;;;;;5092787;28;20040;-71
2022/10/21 06:35:06;;;;;;;55.42;31.58;;;6.00;99.90;;;;;;5090900;28;20048;-71
2022/10/21 06:37:34;;;;;;;63.20;33.63;;;6.20;99.90;;;;;;5095410;28;20058;-71
2022/10/21 06:40:03;;;;;;;50.53;29.60;;;6.30;99.90;;;;;;5096534;28;20127;-70
2022/10/21 06:42:30;;;;;;;45.50;28.02;;;6.50;99.90;;;;;;5077989;28;20044;-71
2022/10/21 06:44:58;;;;;;;43.42;26.95;;;6.80;99.90;;;;;;5079544;28;20048;-71
2022/10/21 06:47:25;;;;;;;41.75;26.15;;;7.10;99.90;;;;;;5060746;28;20135;-71
2022/10/21 06:49:54;;;;;;;37.08;22.85;;;7.30;99.90;;;;;;5078226;28;20040;-71
2022/10/21 06:52:21;;;;;;;34.15;20.63;;;7.50;99.90;;;;;;5059107;28;20087;-72
2022/10/21 06:54:48;;;;;;;32.67;22.60;;;7.70;99.90;;;;;;5076399;28;20453;-71
2022/10/21 06:57:16;;;;;;;41.47;29.48;;;7.70;99.90;;;;;;5076853;28;20533;-73
2022/10/21 06:59:43;;;;;;;47.60;26.92;;;7.90;99.90;;;;;;5077064;28;20037;-71
2022/10/21 07:02:10;;;;;;;37.60;25.60;;;7.90;99.90;;;;;;5077658;28;20037;-70
2022/10/21 07:04:38;;;;;;;43.80;26.30;;;8.00;99.90;;;;;;5076826;28;20098;-70
2022/10/21 07:07:06;;;;;;;46.90;26.85;;;8.20;99.90;;;;;;5076501;28;20040;-71
2022/10/21 07:09:34;;;;;;;43.90;27.52;;;8.30;99.90;;;;;;5077643;28;20048;-72
2022/10/21 07:12:01;;;;;;;41.58;27.55;;;8.40;99.90;;;;;;5076719;28;20056;-72
2022/10/21 07:14:28;;;;;;;52.30;28.63;;;8.50;99.90;;;;;;5077563;28;20507;-71
2022/10/21 07:16:56;;;;;;;45.30;29.90;;;8.60;99.90;;;;;;5058812;28;20098;-71
2022/10/21 07:19:23;;;;;;;36.85;26.42;;;8.60;99.90;;;;;;5076486;28;20393;-71
2022/10/21 07:21:50;;;;;;;35.72;25.60;;;8.70;99.90;;;;;;5076182;28;20090;-71
2022/10/21 07:24:19;;;;;;;45.92;28.65;;;8.90;99.90;;;;;;5076939;28;20121;-70
2022/10/21 07:26:47;;;;;;;37.72;23.23;;;9.20;99.90;;;;;;5077414;28;20045;-72
2022/10/21 07:29:14;;;;;;;43.22;25.67;;;9.40;99.90;;;;;;5083863;28;20055;-71
2022/10/21 07:31:41;;;;;;;34.88;24.92;;;9.50;99.90;;;;;;5077302;28;20049;-71
2022/10/21 07:34:11;;;;;;;33.70;23.30;;;9.60;99.90;;;;;;5081462;28;20056;-71
2022/10/21 07:36:41;;;;;;;38.95;22.67;;;9.70;99.90;;;;;;5084637;28;20048;-72
2022/10/21 07:39:11;;;;;;;37.67;24.38;;;9.90;99.90;;;;;;5082554;28;20040;-70
2022/10/21 07:41:42;;;;;;;37.90;23.27;;;10.10;99.90;;;;;;5083597;28;20051;-71
2022/10/21 07:44:09;;;;;;;38.33;24.00;;;10.30;99.90;;;;;;5084779;28;20119;-70
2022/10/21 07:46:38;;;;;;;43.67;23.55;;;10.40;99.90;;;;;;5081959;28;20070;-71
2022/10/21 07:49:06;;;;;;;36.17;23.75;;;10.40;99.90;;;;;;5080254;28;20079;-71
2022/10/21 07:51:34;;;;;;;38.35;20.70;;;10.20;99.90;;;;;;5078235;28;20052;-71
2022/10/21 07:54:01;;;;;;;31.45;20.60;;;10.30;99.90;;;;;;5077679;28;20099;-71
2022/10/21 07:56:31;;;;;;;36.28;21.35;;;10.40;99.90;;;;;;5060276;28;20075;-71
2022/10/21 07:59:00;;;;;;;31.55;20.30;;;10.50;99.90;;;;;;5078570;28;20599;-72
2022/10/21 08:01:28;;;;;;;36.13;20.00;;;10.70;99.90;;;;;;5077002;28;20538;-71
2022/10/21 08:03:57;;;;;;;26.23;18.23;;;10.80;99.90;;;;;;5059779;28;20056;-70
2022/10/21 08:06:27;;;;;;;28.25;18.48;;;10.70;99.90;;;;;;5061204;28;20044;-72
2022/10/21 08:08:56;;;;;;;29.27;17.92;;;10.90;99.90;;;;;;5063133;28;20048;-71
2022/10/21 08:11:24;;;;;;;27.92;18.25;;;11.00;99.90;;;;;;5080403;28;20479;-71
2022/10/21 08:13:52;;;;;;;29.95;15.43;;;11.10;99.90;;;;;;5075772;28;20094;-71
2022/10/21 08:16:21;;;;;;;21.70;14.15;;;11.10;99.90;;;;;;5075168;28;20052;-70
2022/10/21 08:18:49;;;;;;;17.08;12.40;;;11.30;99.90;;;;;;5076021;28;20521;-71
2022/10/21 08:21:16;;;;;;;16.20;11.38;;;11.70;99.90;;;;;;5075210;28;20099;-71
2022/10/21 08:23:44;;;;;;;19.67;14.80;;;12.00;99.90;;;;;;5074937;28;20041;-71
2022/10/21 08:26:13;;;;;;;23.02;14.30;;;12.20;99.90;;;;;;5075399;28;20120;-70
2022/10/21 08:28:41;;;;;;;25.77;15.90;;;12.30;99.90;;;;;;5074783;28;20041;-71
2022/10/21 08:31:10;;;;;;;19.55;13.82;;;12.40;99.90;;;;;;5074775;28;20446;-71
2022/10/21 08:33:40;;;;;;;22.10;14.15;;;12.60;99.90;;;;;;5073971;28;20057;-71
2022/10/21 08:36:08;;;;;;;24.55;15.15;;;12.70;99.90;;;;;;5074910;28;20477;-71
2022/10/21 08:38:36;;;;;;;19.15;12.93;;;12.80;99.90;;;;;;5074888;28;20045;-71
2022/10/21 08:41:11;;;;;;;17.20;11.55;;;12.90;99.90;;;;;;5074511;28;20048;-71
2022/10/21 08:43:39;;;;;;;19.05;12.85;;;13.00;99.90;;;;;;5074232;28;20048;-71
2022/10/21 08:46:11;;;;;;;22.25;14.00;;;13.10;99.90;;;;;;5074365;28;20044;-71
2022/10/21 08:48:44;;;;;;;23.20;12.93;;;13.20;99.90;;;;;;5074544;28;20123;-71
2022/10/21 08:51:22;;;;;;;23.00;13.35;;;13.30;99.90;;;;;;5056531;28;20553;-71
2022/10/21 08:53:51;;;;;;;22.95;12.68;;;13.50;99.90;;;;;;5073968;28;20101;-72
2022/10/21 08:56:18;;;;;;;18.73;12.50;;;13.70;99.90;;;;;;5074237;28;20078;-72
2022/10/21 08:58:50;;;;;;;15.82;10.90;;;13.80;99.90;;;;;;5074735;28;20093;-71
2022/10/21 09:01:24;;;;;;;17.17;11.63;;;13.90;99.90;;;;;;5075522;28;20123;-72
2022/10/21 09:03:58;;;;;;;17.17;9.82;;;14.00;99.90;;;;;;5080592;28;20123;-70
2022/10/21 09:06:30;;;;;;;15.85;8.70;;;14.10;99.90;;;;;;5061158;28;20503;-69
2022/10/21 09:09:06;;;;;;;16.30;8.65;;;14.10;99.90;;;;;;5076524;28;20040;-71
2022/10/21 09:11:46;;;;;;;13.73;8.60;;;14.20;99.90;;;;;;5075932;28;20045;-71
2022/10/21 09:14:37;;;;;;;16.65;9.80;;;14.30;99.90;;;;;;5073905;28;20041;-71
2022/10/21 09:17:19;;;;;;;17.58;10.65;;;14.50;99.90;;;;;;5074266;28;20040;-71
2022/10/21 09:19:57;;;;;;;15.60;9.07;;;14.70;99.90;;;;;;5074505;28;20048;-72
2022/10/21 09:22:41;;;;;;;14.05;8.75;;;14.80;99.90;;;;;;5074029;28;20090;-70
2022/10/21 09:25:19;;;;;;;14.65;8.65;;;15.00;99.90;;;;;;5081226;28;20045;-69
2022/10/21 09:27:47;;;;;;;14.23;8.82;;;15.20;99.30;;;;;;5073085;28;20048;-71
2022/10/21 09:30:17;;;;;;;9.40;7.60;;;15.30;98.20;;;;;;5087102;28;20074;-71
2022/10/21 09:32:49;;;;;;;17.27;7.65;;;15.50;95.50;;;;;;5074203;28;20044;-72
2022/10/21 09:35:27;;;;;;;11.02;6.35;;;15.70;93.90;;;;;;5076016;28;20052;-70
2022/10/21 09:37:58;;;;;;;12.38;6.85;;;15.90;92.30;;;;;;5056094;28;20048;-70
2022/10/21 09:40:27;;;;;;;21.95;8.70;;;16.10;91.80;;;;;;5073787;28;20078;-72
2022/10/21 09:42:57;;;;;;;32.90;10.52;;;16.30;92.10;;;;;;5073446;28;20106;-71
2022/10/21 09:45:31;;;;;;;42.33;9.95;;;16.40;90.80;;;;;;5056301;28;20055;-69
2022/10/21 09:48:01;;;;;;;15.90;7.90;;;16.60;89.90;;;;;;5074050;28;20048;-70
2022/10/21 09:50:32;;;;;;;12.98;6.97;;;16.70;88.30;;;;;;5073718;28;20098;-70
2022/10/21 09:53:06;;;;;;;15.52;8.07;;;16.80;87.10;;;;;;5073675;28;20086;-70
2022/10/21 09:55:34;;;;;;;16.75;8.25;;;16.90;87.60;;;;;;5055875;28;20048;-71
2022/10/21 09:58:02;;;;;;;16.98;7.82;;;16.90;90.00;;;;;;5073909;28;20094;-71
2022/10/21 10:00:46;;;;;;;14.38;8.65;;;16.90;88.40;;;;;;5073745;28;20126;-70
2022/10/21 10:03:28;;;;;;;14.00;8.10;;;17.00;87.60;;;;;;5073322;28;20048;-70
2022/10/21 10:05:58;;;;;;;14.75;8.38;;;17.10;86.80;;;;;;5075518;28;20170;-71
2022/10/21 10:08:33;;;;;;;13.20;8.30;;;17.30;87.30;;;;;;5074941;28;20040;-71
2022/10/21 10:11:17;;;;;;;13.15;8.10;;;17.30;87.70;;;;;;5055773;28;20053;-70
2022/10/21 10:13:46;;;;;;;13.73;9.20;;;17.40;87.20;;;;;;5072948;28;20124;-70
2022/10/21 10:16:23;;;;;;;46.15;13.40;;;17.50;86.50;;;;;;5073458;28;20049;-70
2022/10/21 10:18:52;;;;;;;11.82;8.40;;;17.60;85.30;;;;;;5076585;28;20048;-71
2022/10/21 10:21:21;;;;;;;17.45;11.77;;;17.70;84.40;;;;;;5077604;28;20547;-69
2022/10/21 10:23:50;;;;;;;13.10;8.80;;;17.90;84.10;;;;;;5077194;28;20048;-70
2022/10/21 10:26:21;;;;;;;11.68;8.00;;;18.00;83.80;;;;;;5077065;28;20072;-71
2022/10/21 10:28:52;;;;;;;18.73;8.85;;;18.20;80.30;;;;;;5077585;28;20067;-71
2022/10/21 10:31:31;;;;;;;15.75;9.45;;;18.20;80.50;;;;;;5077325;28;20037;-70
2022/10/21 10:34:02;;;;;;;13.75;8.82;;;18.40;81.00;;;;;;5076792;28;20052;-71
2022/10/21 10:36:35;;;;;;;16.45;9.77;;;18.50;79.40;;;;;;5078058;28;20404;-70
2022/10/21 10:39:04;;;;;;;13.80;10.25;;;18.60;78.60;;;;;;5077460;28;20090;-70
2022/10/21 10:41:36;;;;;;;14.38;9.68;;;18.70;77.90;;;;;;5077524;28;20105;-71
2022/10/21 10:44:10;;;;;;;16.83;10.52;;;18.80;78.00;;;;;;5077395;28;20045;-70
2022/10/21 10:46:39;;;;;;;15.45;10.02;;;19.00;77.50;;;;;;5077889;28;20048;-71
2022/10/21 10:49:21;;;;;;;13.77;9.95;;;19.00;75.00;;;;;;5078235;28;20068;-71
2022/10/21 10:52:04;;;;;;;11.77;8.82;;;19.00;74.10;;;;;;5086186;28;20130;-70
2022/10/21 10:54:32;;;;;;;17.90;10.95;;;19.20;72.80;;;;;;5092154;28;20094;-70
2022/10/21 10:57:02;;;;;;;15.23;9.13;;;19.40;72.70;;;;;;5095021;28;20071;-70
2022/10/21 10:59:35;;;;;;;14.85;9.75;;;19.60;73.80;;;;;;5115599;28;20090;-70
2022/10/21 11:02:25;;;;;;;26.45;18.35;;;19.70;72.50;;;;;;5113912;28;20032;-70
2022/10/21 11:05:15;;;;;;;48.33;37.28;;;19.70;74.20;;;;;;5093294;28;20090;-70
2022/10/21 11:07:48;;;;;;;21.55;15.02;;;19.80;76.50;;;;;;5112775;28;20048;-70
2022/10/21 11:10:28;;;;;;;18.60;11.73;;;19.80;78.50;;;;;;5092900;28;20158;-71
2022/10/21 11:12:55;;;;;;;15.77;9.98;;;19.80;80.00;;;;;;5107082;28;20143;-70
2022/10/21 11:15:31;;;;;;;18.48;12.35;;;19.90;80.90;;;;;;5104433;28;20066;-71
2022/10/21 11:18:02;;;;;;;29.13;15.40;;;20.10;81.80;;;;;;5098825;28;20079;-71
2022/10/21 11:20:37;;;;;;;19.40;12.73;;;20.30;81.70;;;;;;5103562;28;20036;-70
2022/10/21 11:23:34;;;;;;;16.88;11.48;;;20.50;81.60;;;;;;5098345;28;20517;-71
2022/10/21 11:26:13;;;;;;;18.58;12.90;;;20.60;81.00;;;;;;5098165;28;20098;-71
2022/10/21 11:28:46;;;;;;;22.83;12.55;;;20.70;81.60;;;;;;5099362;28;20047;-71
2022/10/21 11:31:23;;;;;;;16.30;12.13;;;20.60;79.80;;;;;;5099231;28;20449;-71
2022/10/21 11:33:54;;;;;;;17.65;12.68;;;20.70;79.30;;;;;;5096974;28;20497;-70
2022/10/21 11:36:30;;;;;;;18.25;11.85;;;21.00;79.00;;;;;;5096752;28;20048;-70
2022/10/21 11:39:31;;;;;;;19.25;13.90;;;21.20;76.80;;;;;;5096777;28;20559;-70
2022/10/21 11:42:07;;;;;;;19.80;12.80;;;21.60;76.20;;;;;;5078198;28;20101;-71
2022/10/21 11:44:43;;;;;;;15.88;11.50;;;21.70;75.40;;;;;;5095758;28;20069;-71
2022/10/21 11:47:12;;;;;;;;;;;21.40;76.10;;;;;;5096618;28;20449;-70
2022/10/21 11:49:50;;;;;;;15.05;10.50;;;21.50;76.10;;;;;;5096307;28;19924;-69
2022/10/21 11:52:31;;;;;;;15.82;11.82;;;21.60;76.30;;;;;;5095280;28;20435;-71
2022/10/21 11:55:33;;;;;;;17.60;12.15;;;21.70;75.60;;;;;;5078021;28;20040;-69
2022/10/21 11:58:07;;;;;;;15.73;10.95;;;21.90;75.20;;;;;;5095126;28;20089;-70
2022/10/21 12:00:44;;;;;;;13.88;11.23;;;21.70;77.10;;;;;;5092664;28;20438;-71
2022/10/21 12:03:28;;;;;;;15.98;11.05;;;21.80;77.90;;;;;;5099298;28;20043;-71
2022/10/21 12:06:01;;;;;;;21.75;12.75;;;21.90;77.80;;;;;;5098146;28;20548;-70
2022/10/21 12:08:34;;;;;;;18.95;12.00;;;21.90;79.20;;;;;;5096048;28;20054;-69
2022/10/21 12:11:12;;;;;;;18.67;13.18;;;22.00;78.50;;;;;;5095268;28;20064;-70
2022/10/21 12:13:44;;;;;;;17.27;11.80;;;22.10;78.90;;;;;;5089025;28;20071;-71
2022/10/21 12:16:16;;;;;;;17.98;12.30;;;22.20;79.00;;;;;;5097546;28;20048;-70
2022/10/21 12:18:47;;;;;;;20.67;14.15;;;22.40;77.40;;;;;;5095284;28;20044;-70
2022/10/21 12:21:18;;;;;;;21.33;13.43;;;22.30;78.00;;;;;;5095594;28;20032;-70
2022/10/21 12:23:50;;;;;;;19.80;13.55;;;22.30;78.30;;;;;;5095132;28;20526;-70
2022/10/21 12:26:24;;;;;;;19.00;12.30;;;22.30;77.30;;;;;;5095361;28;20074;-69
2022/10/21 12:28:58;;;;;;;28.80;14.02;;;22.40;74.60;;;;;;5094733;28;20109;-70
2022/10/21 12:31:38;;;;;;;21.92;13.40;;;22.30;75.40;;;;;;5095054;28;20176;-70
2022/10/21 12:34:07;;;;;;;22.42;13.30;;;22.30;75.40;;;;;;5075973;28;20117;-70
2022/10/21 12:36:47;;;;;;;22.13;14.63;;;22.30;75.60;;;;;;5095086;28;20040;-71
2022/10/21 12:39:48;;;;;;;22.58;15.35;;;22.20;82.00;;;;;;5094828;28;20114;-70
2022/10/21 12:42:19;;;;;;;24.27;14.93;;;21.00;90.30;;;;;;5094307;28;20483;-71
2022/10/21 12:44:47;;;;;;;27.95;16.38;;;19.90;94.00;;;;;;5094052;28;20100;-71
2022/10/21 12:47:38;;;;;;;28.02;17.75;;;19.20;99.90;;;;;;5094364;28;20123;-69
2022/10/21 12:50:22;;;;;;;28.40;17.27;;;18.90;99.90;;;;;;5091584;28;20113;-70
2022/10/21 12:53:05;;;;;;;24.30;15.02;;;18.70;99.90;;;;;;5076543;28;20040;-70
2022/10/21 12:55:38;;;;;;;24.25;16.48;;;18.50;99.90;;;;;;5094996;28;20048;-70